sensor_id;sensor_type;location;lat;lon;timestamp;P1;durP1;ratioP1;P2;durP2;ratioP2
16977;SDS011;8605;52.548;4.918;2023-05-15T00:01:10;24.13;;;13.75;;
16977;SDS011;8605;52.548;4.918;2023-05-15T00:06:13;19.02;;;12.50;;
16977;SDS011;8605;52.548;4.918;2023-05-15T00:11:17;23.17;;;13.43;;
16977;SDS011;8605;52.548;4.918;2023-05-15T00:16:23;19.65;;;11.88;;
16977;SDS011;8605;52.548;4.918;2023-05-15T00:21:26;23.27;;;13.18;;
16977;SDS011;8605;52.548;4.918;2023-05-15T00:26:30;22.75;;;13.57;;
16977;SDS011;8605;52.548;4.918;2023-05-15T00:31:33;24.17;;;14.20;;
16977;SDS011;8605;52.548;4.918;2023-05-15T00:36:36;27.40;;;13.50;;
16977;SDS011;8605;52.548;4.918;2023-05-15T00:41:40;21.15;;;14.00;;
16977;SDS011;8605;52.548;4.918;2023-05-15T00:46:44;23.08;;;14.13;;
16977;SDS011;8605;52.548;4.918;2023-05-15T00:51:47;25.87;;;15.10;;
16977;SDS011;8605;52.548;4.918;2023-05-15T00:56:52;25.95;;;16.25;;
16977;SDS011;8605;52.548;4.918;2023-05-15T01:01:58;27.07;;;16.70;;
16977;SDS011;8605;52.548;4.918;2023-05-15T01:07:01;30.60;;;17.47;;
16977;SDS011;8605;52.548;4.918;2023-05-15T01:12:05;23.87;;;15.63;;
16977;SDS011;8605;52.548;4.918;2023-05-15T01:17:09;29.75;;;17.65;;
16977;SDS011;8605;52.548;4.918;2023-05-15T01:22:24;26.45;;;17.38;;
16977;SDS011;8605;52.548;4.918;2023-05-15T01:27:36;30.93;;;18.83;;
16977;SDS011;8605;52.548;4.918;2023-05-15T01:32:42;31.88;;;17.98;;
16977;SDS011;8605;52.548;4.918;2023-05-15T01:37:50;33.55;;;18.40;;
16977;SDS011;8605;52.548;4.918;2023-05-15T01:43:00;30.48;;;18.02;;
16977;SDS011;8605;52.548;4.918;2023-05-15T01:48:07;33.60;;;19.40;;
16977;SDS011;8605;52.548;4.918;2023-05-15T01:53:11;29.90;;;18.10;;
16977;SDS011;8605;52.548;4.918;2023-05-15T01:58:15;30.07;;;18.40;;
16977;SDS011;8605;52.548;4.918;2023-05-15T02:03:19;29.53;;;18.93;;
16977;SDS011;8605;52.548;4.918;2023-05-15T02:08:22;32.17;;;19.63;;
16977;SDS011;8605;52.548;4.918;2023-05-15T02:13:30;28.02;;;17.38;;
16977;SDS011;8605;52.548;4.918;2023-05-15T02:18:33;27.63;;;17.83;;
16977;SDS011;8605;52.548;4.918;2023-05-15T02:23:36;27.20;;;17.20;;
16977;SDS011;8605;52.548;4.918;2023-05-15T02:28:42;27.65;;;16.17;;
16977;SDS011;8605;52.548;4.918;2023-05-15T02:33:51;25.23;;;14.52;;
16977;SDS011;8605;52.548;4.918;2023-05-15T02:38:57;23.60;;;13.82;;
16977;SDS011;8605;52.548;4.918;2023-05-15T02:44:02;22.02;;;13.18;;
16977;SDS011;8605;52.548;4.918;2023-05-15T02:49:05;23.60;;;12.43;;
16977;SDS011;8605;52.548;4.918;2023-05-15T02:54:08;20.60;;;12.77;;
16977;SDS011;8605;52.548;4.918;2023-05-15T02:59:13;19.65;;;12.15;;
16977;SDS011;8605;52.548;4.918;2023-05-15T03:04:20;19.67;;;12.37;;
16977;SDS011;8605;52.548;4.918;2023-05-15T03:09:23;17.63;;;11.57;;
16977;SDS011;8605;52.548;4.918;2023-05-15T03:14:28;22.30;;;13.70;;
16977;SDS011;8605;52.548;4.918;2023-05-15T03:19:31;21.10;;;13.02;;
16977;SDS011;8605;52.548;4.918;2023-05-15T03:24:33;19.65;;;11.70;;
16977;SDS011;8605;52.548;4.918;2023-05-15T03:29:38;22.80;;;13.55;;
16977;SDS011;8605;52.548;4.918;2023-05-15T03:34:41;23.00;;;13.27;;
16977;SDS011;8605;52.548;4.918;2023-05-15T03:39:44;20.85;;;12.48;;
16977;SDS011;8605;52.548;4.918;2023-05-15T03:44:48;16.52;;;10.90;;
16977;SDS011;8605;52.548;4.918;2023-05-15T03:49:51;19.13;;;11.60;;
16977;SDS011;8605;52.548;4.918;2023-05-15T03:54:54;23.15;;;14.93;;
16977;SDS011;8605;52.548;4.918;2023-05-15T04:00:00;22.00;;;14.82;;
16977;SDS011;8605;52.548;4.918;2023-05-15T04:05:12;27.50;;;15.57;;
16977;SDS011;8605;52.548;4.918;2023-05-15T04:10:15;22.70;;;14.83;;
16977;SDS011;8605;52.548;4.918;2023-05-15T04:15:20;21.67;;;14.93;;
16977;SDS011;8605;52.548;4.918;2023-05-15T04:20:24;22.10;;;14.20;;
16977;SDS011;8605;52.548;4.918;2023-05-15T04:25:27;21.20;;;15.10;;
16977;SDS011;8605;52.548;4.918;2023-05-15T04:30:32;19.23;;;13.82;;
16977;SDS011;8605;52.548;4.918;2023-05-15T04:35:35;20.20;;;13.23;;
16977;SDS011;8605;52.548;4.918;2023-05-15T04:40:38;21.38;;;14.30;;
16977;SDS011;8605;52.548;4.918;2023-05-15T04:45:42;20.40;;;13.13;;
16977;SDS011;8605;52.548;4.918;2023-05-15T04:50:45;20.77;;;11.63;;
16977;SDS011;8605;52.548;4.918;2023-05-15T04:55:48;16.48;;;11.23;;
16977;SDS011;8605;52.548;4.918;2023-05-15T05:00:53;16.13;;;11.15;;
16977;SDS011;8605;52.548;4.918;2023-05-15T05:05:55;18.80;;;12.67;;
16977;SDS011;8605;52.548;4.918;2023-05-15T05:10:58;19.53;;;13.07;;
16977;SDS011;8605;52.548;4.918;2023-05-15T05:16:03;22.87;;;15.33;;
16977;SDS011;8605;52.548;4.918;2023-05-15T05:21:06;27.27;;;17.10;;
16977;SDS011;8605;52.548;4.918;2023-05-15T05:26:09;23.50;;;17.10;;
16977;SDS011;8605;52.548;4.918;2023-05-15T05:31:13;25.43;;;15.60;;
16977;SDS011;8605;52.548;4.918;2023-05-15T05:36:16;24.73;;;15.30;;
16977;SDS011;8605;52.548;4.918;2023-05-15T05:41:19;18.67;;;13.63;;
16977;SDS011;8605;52.548;4.918;2023-05-15T05:46:24;19.60;;;13.30;;
16977;SDS011;8605;52.548;4.918;2023-05-15T05:51:27;23.80;;;15.15;;
16977;SDS011;8605;52.548;4.918;2023-05-15T05:56:32;23.67;;;16.03;;
16977;SDS011;8605;52.548;4.918;2023-05-15T06:01:36;27.90;;;16.67;;
16977;SDS011;8605;52.548;4.918;2023-05-15T06:06:39;22.58;;;15.32;;
16977;SDS011;8605;52.548;4.918;2023-05-15T06:11:42;28.48;;;16.88;;
16977;SDS011;8605;52.548;4.918;2023-05-15T06:16:47;24.37;;;15.57;;
16977;SDS011;8605;52.548;4.918;2023-05-15T06:21:50;24.80;;;15.20;;
16977;SDS011;8605;52.548;4.918;2023-05-15T06:26:52;24.50;;;15.45;;
16977;SDS011;8605;52.548;4.918;2023-05-15T06:31:57;23.70;;;16.05;;
16977;SDS011;8605;52.548;4.918;2023-05-15T06:37:00;26.40;;;16.70;;
16977;SDS011;8605;52.548;4.918;2023-05-15T06:42:03;30.35;;;16.77;;
16977;SDS011;8605;52.548;4.918;2023-05-15T06:47:09;25.83;;;15.68;;
16977;SDS011;8605;52.548;4.918;2023-05-15T06:52:12;27.73;;;16.92;;
16977;SDS011;8605;52.548;4.918;2023-05-15T06:57:15;23.67;;;15.97;;
16977;SDS011;8605;52.548;4.918;2023-05-15T07:02:20;27.90;;;16.50;;
16977;SDS011;8605;52.548;4.918;2023-05-15T07:07:23;28.67;;;17.75;;
16977;SDS011;8605;52.548;4.918;2023-05-15T07:12:26;28.63;;;15.73;;
16977;SDS011;8605;52.548;4.918;2023-05-15T07:17:30;32.35;;;17.55;;
16977;SDS011;8605;52.548;4.918;2023-05-15T07:22:34;27.73;;;17.75;;
16977;SDS011;8605;52.548;4.918;2023-05-15T07:27:52;30.05;;;17.63;;
16977;SDS011;8605;52.548;4.918;2023-05-15T07:32:56;26.13;;;16.77;;
16977;SDS011;8605;52.548;4.918;2023-05-15T07:37:59;31.13;;;18.58;;
16977;SDS011;8605;52.548;4.918;2023-05-15T07:43:02;32.90;;;17.88;;
16977;SDS011;8605;52.548;4.918;2023-05-15T07:48:13;37.17;;;21.70;;
16977;SDS011;8605;52.548;4.918;2023-05-15T07:53:17;38.83;;;21.23;;
16977;SDS011;8605;52.548;4.918;2023-05-15T07:58:20;38.43;;;21.93;;
16977;SDS011;8605;52.548;4.918;2023-05-15T08:03:25;39.25;;;20.98;;
16977;SDS011;8605;52.548;4.918;2023-05-15T08:08:28;34.90;;;21.70;;
16977;SDS011;8605;52.548;4.918;2023-05-15T08:13:31;35.47;;;19.80;;
16977;SDS011;8605;52.548;4.918;2023-05-15T08:18:35;34.72;;;20.55;;
16977;SDS011;8605;52.548;4.918;2023-05-15T08:23:38;42.17;;;22.00;;
16977;SDS011;8605;52.548;4.918;2023-05-15T08:28:41;31.20;;;19.58;;
16977;SDS011;8605;52.548;4.918;2023-05-15T08:33:45;34.03;;;21.33;;
16977;SDS011;8605;52.548;4.918;2023-05-15T08:38:48;33.60;;;20.40;;
16977;SDS011;8605;52.548;4.918;2023-05-15T08:43:50;34.03;;;19.70;;
16977;SDS011;8605;52.548;4.918;2023-05-15T08:48:56;32.60;;;20.08;;
16977;SDS011;8605;52.548;4.918;2023-05-15T08:53:59;37.70;;;20.55;;
16977;SDS011;8605;52.548;4.918;2023-05-15T08:59:03;30.35;;;18.77;;
16977;SDS011;8605;52.548;4.918;2023-05-15T09:04:07;32.38;;;17.95;;
16977;SDS011;8605;52.548;4.918;2023-05-15T09:09:10;30.10;;;18.60;;
16977;SDS011;8605;52.548;4.918;2023-05-15T09:14:14;29.73;;;18.50;;
16977;SDS011;8605;52.548;4.918;2023-05-15T09:19:18;32.50;;;18.48;;
16977;SDS011;8605;52.548;4.918;2023-05-15T09:24:23;29.40;;;18.42;;
16977;SDS011;8605;52.548;4.918;2023-05-15T09:29:30;32.92;;;18.50;;
16977;SDS011;8605;52.548;4.918;2023-05-15T09:34:36;29.90;;;16.25;;
16977;SDS011;8605;52.548;4.918;2023-05-15T09:39:40;31.03;;;17.00;;
16977;SDS011;8605;52.548;4.918;2023-05-15T09:44:44;25.48;;;15.60;;
16977;SDS011;8605;52.548;4.918;2023-05-15T09:49:49;21.48;;;13.88;;
16977;SDS011;8605;52.548;4.918;2023-05-15T09:54:52;26.73;;;13.37;;
16977;SDS011;8605;52.548;4.918;2023-05-15T09:59:59;19.60;;;13.48;;
16977;SDS011;8605;52.548;4.918;2023-05-15T10:05:13;21.17;;;13.45;;
16977;SDS011;8605;52.548;4.918;2023-05-15T10:10:17;22.52;;;14.45;;
16977;SDS011;8605;52.548;4.918;2023-05-15T10:15:20;24.05;;;13.90;;
16977;SDS011;8605;52.548;4.918;2023-05-15T10:20:25;24.70;;;13.98;;
16977;SDS011;8605;52.548;4.918;2023-05-15T10:25:32;21.25;;;13.23;;
16977;SDS011;8605;52.548;4.918;2023-05-15T10:30:37;22.27;;;13.97;;
16977;SDS011;8605;52.548;4.918;2023-05-15T10:35:41;27.52;;;16.08;;
16977;SDS011;8605;52.548;4.918;2023-05-15T10:40:44;22.63;;;14.00;;
16977;SDS011;8605;52.548;4.918;2023-05-15T10:45:48;21.40;;;13.75;;
16977;SDS011;8605;52.548;4.918;2023-05-15T10:50:53;22.00;;;14.85;;
16977;SDS011;8605;52.548;4.918;2023-05-15T10:55:56;22.75;;;15.68;;
16977;SDS011;8605;52.548;4.918;2023-05-15T11:00:59;20.55;;;13.48;;
16977;SDS011;8605;52.548;4.918;2023-05-15T11:06:07;25.20;;;12.95;;
16977;SDS011;8605;52.548;4.918;2023-05-15T11:16:57;16.60;;;11.23;;
16977;SDS011;8605;52.548;4.918;2023-05-15T11:22:15;12.40;;;8.82;;
16977;SDS011;8605;52.548;4.918;2023-05-15T11:27:19;15.57;;;9.20;;
16977;SDS011;8605;52.548;4.918;2023-05-15T11:32:39;11.45;;;7.93;;
16977;SDS011;8605;52.548;4.918;2023-05-15T11:37:48;10.57;;;7.47;;
16977;SDS011;8605;52.548;4.918;2023-05-15T11:48:19;12.07;;;7.43;;
16977;SDS011;8605;52.548;4.918;2023-05-15T11:53:23;12.40;;;7.28;;
16977;SDS011;8605;52.548;4.918;2023-05-15T11:58:27;12.43;;;8.05;;
16977;SDS011;8605;52.548;4.918;2023-05-15T12:03:31;15.43;;;9.77;;
16977;SDS011;8605;52.548;4.918;2023-05-15T12:08:38;15.98;;;9.75;;
16977;SDS011;8605;52.548;4.918;2023-05-15T12:13:42;15.63;;;9.40;;
16977;SDS011;8605;52.548;4.918;2023-05-15T12:18:46;12.40;;;9.07;;
16977;SDS011;8605;52.548;4.918;2023-05-15T12:23:51;17.92;;;8.90;;
16977;SDS011;8605;52.548;4.918;2023-05-15T12:29:07;23.60;;;11.68;;
16977;SDS011;8605;52.548;4.918;2023-05-15T12:34:10;22.75;;;11.82;;
16977;SDS011;8605;52.548;4.918;2023-05-15T12:39:15;20.50;;;11.13;;
16977;SDS011;8605;52.548;4.918;2023-05-15T12:44:18;114.70;;;17.63;;
16977;SDS011;8605;52.548;4.918;2023-05-15T12:49:21;15.82;;;5.95;;
16977;SDS011;8605;52.548;4.918;2023-05-15T12:54:26;7.10;;;4.63;;
16977;SDS011;8605;52.548;4.918;2023-05-15T12:59:28;7.60;;;4.63;;
16977;SDS011;8605;52.548;4.918;2023-05-15T13:04:31;8.40;;;3.93;;
16977;SDS011;8605;52.548;4.918;2023-05-15T13:09:36;12.07;;;4.85;;
16977;SDS011;8605;52.548;4.918;2023-05-15T13:14:40;7.53;;;4.53;;
16977;SDS011;8605;52.548;4.918;2023-05-15T13:19:43;13.95;;;4.47;;
16977;SDS011;8605;52.548;4.918;2023-05-15T13:24:48;6.45;;;4.13;;
16977;SDS011;8605;52.548;4.918;2023-05-15T13:29:52;6.90;;;4.00;;
16977;SDS011;8605;52.548;4.918;2023-05-15T13:34:55;10.77;;;3.93;;
16977;SDS011;8605;52.548;4.918;2023-05-15T13:40:00;6.83;;;3.13;;
16977;SDS011;8605;52.548;4.918;2023-05-15T13:45:07;5.28;;;3.03;;
16977;SDS011;8605;52.548;4.918;2023-05-15T13:50:11;6.65;;;3.10;;
16977;SDS011;8605;52.548;4.918;2023-05-15T13:55:16;7.97;;;3.80;;
16977;SDS011;8605;52.548;4.918;2023-05-15T14:00:21;11.25;;;3.40;;
16977;SDS011;8605;52.548;4.918;2023-05-15T14:05:24;9.55;;;2.45;;
16977;SDS011;8605;52.548;4.918;2023-05-15T14:10:30;3.97;;;2.45;;
16977;SDS011;8605;52.548;4.918;2023-05-15T14:15:33;3.63;;;2.38;;
16977;SDS011;8605;52.548;4.918;2023-05-15T14:20:36;4.45;;;2.20;;
16977;SDS011;8605;52.548;4.918;2023-05-15T14:25:40;5.93;;;2.50;;
16977;SDS011;8605;52.548;4.918;2023-05-15T14:30:43;11.90;;;2.70;;
16977;SDS011;8605;52.548;4.918;2023-05-15T14:35:46;5.50;;;2.10;;
16977;SDS011;8605;52.548;4.918;2023-05-15T14:40:51;3.50;;;2.58;;
16977;SDS011;8605;52.548;4.918;2023-05-15T14:45:53;3.88;;;2.13;;
16977;SDS011;8605;52.548;4.918;2023-05-15T14:50:56;4.25;;;2.80;;
16977;SDS011;8605;52.548;4.918;2023-05-15T14:56:01;8.57;;;3.45;;
16977;SDS011;8605;52.548;4.918;2023-05-15T15:01:03;7.45;;;2.65;;
16977;SDS011;8605;52.548;4.918;2023-05-15T15:06:07;5.22;;;2.80;;
16977;SDS011;8605;52.548;4.918;2023-05-15T15:11:11;6.07;;;3.15;;
16977;SDS011;8605;52.548;4.918;2023-05-15T15:16:14;4.10;;;2.47;;
16977;SDS011;8605;52.548;4.918;2023-05-15T15:21:17;5.27;;;2.40;;
16977;SDS011;8605;52.548;4.918;2023-05-15T15:26:21;5.80;;;2.40;;
16977;SDS011;8605;52.548;4.918;2023-05-15T15:31:26;7.65;;;2.60;;
16977;SDS011;8605;52.548;4.918;2023-05-15T15:36:30;10.93;;;3.17;;
16977;SDS011;8605;52.548;4.918;2023-05-15T15:41:34;13.40;;;3.00;;
16977;SDS011;8605;52.548;4.918;2023-05-15T15:46:38;11.00;;;3.30;;
16977;SDS011;8605;52.548;4.918;2023-05-15T15:51:41;11.68;;;3.45;;
16977;SDS011;8605;52.548;4.918;2023-05-15T15:56:46;7.30;;;3.17;;
16977;SDS011;8605;52.548;4.918;2023-05-15T16:01:49;7.60;;;3.05;;
16977;SDS011;8605;52.548;4.918;2023-05-15T16:06:52;7.85;;;3.08;;
16977;SDS011;8605;52.548;4.918;2023-05-15T16:11:57;10.05;;;3.00;;
16977;SDS011;8605;52.548;4.918;2023-05-15T16:17:02;14.60;;;4.35;;
16977;SDS011;8605;52.548;4.918;2023-05-15T16:22:05;8.53;;;3.57;;
16977;SDS011;8605;52.548;4.918;2023-05-15T16:27:10;12.43;;;4.07;;
16977;SDS011;8605;52.548;4.918;2023-05-15T16:32:13;12.23;;;2.83;;
16977;SDS011;8605;52.548;4.918;2023-05-15T16:37:16;11.33;;;3.80;;
16977;SDS011;8605;52.548;4.918;2023-05-15T16:42:20;12.35;;;3.50;;
16977;SDS011;8605;52.548;4.918;2023-05-15T16:47:23;16.70;;;4.00;;
16977;SDS011;8605;52.548;4.918;2023-05-15T16:52:26;8.57;;;3.83;;
16977;SDS011;8605;52.548;4.918;2023-05-15T16:57:33;9.33;;;3.40;;
16977;SDS011;8605;52.548;4.918;2023-05-15T17:02:36;12.93;;;3.80;;
16977;SDS011;8605;52.548;4.918;2023-05-15T17:07:39;13.73;;;4.03;;
16977;SDS011;8605;52.548;4.918;2023-05-15T17:12:44;11.23;;;3.13;;
16977;SDS011;8605;52.548;4.918;2023-05-15T17:17:47;6.78;;;2.38;;
16977;SDS011;8605;52.548;4.918;2023-05-15T17:22:50;14.77;;;2.80;;
16977;SDS011;8605;52.548;4.918;2023-05-15T17:27:54;6.68;;;2.53;;
16977;SDS011;8605;52.548;4.918;2023-05-15T17:32:57;8.52;;;3.00;;
16977;SDS011;8605;52.548;4.918;2023-05-15T17:38:00;6.93;;;2.40;;
16977;SDS011;8605;52.548;4.918;2023-05-15T17:43:05;11.60;;;2.50;;
16977;SDS011;8605;52.548;4.918;2023-05-15T17:48:10;9.93;;;2.20;;
16977;SDS011;8605;52.548;4.918;2023-05-15T17:53:13;4.87;;;1.40;;
16977;SDS011;8605;52.548;4.918;2023-05-15T17:58:17;3.20;;;1.70;;
16977;SDS011;8605;52.548;4.918;2023-05-15T18:03:21;3.67;;;1.80;;
16977;SDS011;8605;52.548;4.918;2023-05-15T18:08:24;6.85;;;2.30;;
16977;SDS011;8605;52.548;4.918;2023-05-15T18:13:28;11.98;;;1.98;;
16977;SDS011;8605;52.548;4.918;2023-05-15T18:18:32;6.60;;;2.00;;
16977;SDS011;8605;52.548;4.918;2023-05-15T18:23:35;3.53;;;1.83;;
16977;SDS011;8605;52.548;4.918;2023-05-15T18:28:39;6.22;;;2.75;;
16977;SDS011;8605;52.548;4.918;2023-05-15T18:33:42;6.43;;;2.33;;
16977;SDS011;8605;52.548;4.918;2023-05-15T18:38:46;8.30;;;2.90;;
16977;SDS011;8605;52.548;4.918;2023-05-15T18:43:50;7.83;;;2.60;;
16977;SDS011;8605;52.548;4.918;2023-05-15T18:48:53;15.63;;;2.95;;
16977;SDS011;8605;52.548;4.918;2023-05-15T18:53:55;9.95;;;3.55;;
16977;SDS011;8605;52.548;4.918;2023-05-15T18:59:00;9.68;;;3.22;;
16977;SDS011;8605;52.548;4.918;2023-05-15T19:04:03;18.45;;;4.03;;
16977;SDS011;8605;52.548;4.918;2023-05-15T19:09:06;9.27;;;3.72;;
16977;SDS011;8605;52.548;4.918;2023-05-15T19:14:12;15.02;;;4.10;;
16977;SDS011;8605;52.548;4.918;2023-05-15T19:19:16;16.53;;;3.70;;
16977;SDS011;8605;52.548;4.918;2023-05-15T19:24:19;10.18;;;3.25;;
16977;SDS011;8605;52.548;4.918;2023-05-15T19:29:24;12.00;;;3.60;;
16977;SDS011;8605;52.548;4.918;2023-05-15T19:34:26;16.83;;;3.40;;
16977;SDS011;8605;52.548;4.918;2023-05-15T19:39:29;11.75;;;3.42;;
16977;SDS011;8605;52.548;4.918;2023-05-15T19:44:35;10.40;;;3.37;;
16977;SDS011;8605;52.548;4.918;2023-05-15T19:49:38;8.38;;;3.83;;
16977;SDS011;8605;52.548;4.918;2023-05-15T19:54:41;7.15;;;3.25;;
16977;SDS011;8605;52.548;4.918;2023-05-15T19:59:45;10.57;;;4.00;;
16977;SDS011;8605;52.548;4.918;2023-05-15T20:04:48;12.85;;;3.97;;
16977;SDS011;8605;52.548;4.918;2023-05-15T20:09:51;11.65;;;3.88;;
16977;SDS011;8605;52.548;4.918;2023-05-15T20:14:56;12.88;;;3.80;;
16977;SDS011;8605;52.548;4.918;2023-05-15T20:19:58;18.03;;;4.57;;
16977;SDS011;8605;52.548;4.918;2023-05-15T20:25:02;13.33;;;4.13;;
16977;SDS011;8605;52.548;4.918;2023-05-15T20:30:08;14.35;;;4.07;;
16977;SDS011;8605;52.548;4.918;2023-05-15T20:35:12;15.60;;;4.10;;
16977;SDS011;8605;52.548;4.918;2023-05-15T20:40:14;15.27;;;4.45;;
16977;SDS011;8605;52.548;4.918;2023-05-15T20:45:21;12.75;;;4.10;;
16977;SDS011;8605;52.548;4.918;2023-05-15T20:50:25;17.23;;;4.20;;
16977;SDS011;8605;52.548;4.918;2023-05-15T20:55:28;12.90;;;4.17;;
16977;SDS011;8605;52.548;4.918;2023-05-15T21:00:32;12.93;;;3.50;;
16977;SDS011;8605;52.548;4.918;2023-05-15T21:05:35;12.27;;;3.38;;
16977;SDS011;8605;52.548;4.918;2023-05-15T21:10:38;14.63;;;4.10;;
16977;SDS011;8605;52.548;4.918;2023-05-15T21:15:42;20.63;;;4.60;;
16977;SDS011;8605;52.548;4.918;2023-05-15T21:20:45;11.18;;;3.63;;
16977;SDS011;8605;52.548;4.918;2023-05-15T21:25:48;9.55;;;3.00;;
16977;SDS011;8605;52.548;4.918;2023-05-15T21:30:52;15.55;;;4.28;;
16977;SDS011;8605;52.548;4.918;2023-05-15T21:35:55;15.95;;;3.92;;
16977;SDS011;8605;52.548;4.918;2023-05-15T21:40:58;14.10;;;3.60;;
16977;SDS011;8605;52.548;4.918;2023-05-15T21:46:03;14.75;;;3.30;;
16977;SDS011;8605;52.548;4.918;2023-05-15T21:51:06;13.83;;;4.00;;
16977;SDS011;8605;52.548;4.918;2023-05-15T21:56:08;9.68;;;3.42;;
16977;SDS011;8605;52.548;4.918;2023-05-15T22:01:13;10.98;;;3.75;;
16977;SDS011;8605;52.548;4.918;2023-05-15T22:06:16;13.32;;;4.05;;
16977;SDS011;8605;52.548;4.918;2023-05-15T22:11:19;13.02;;;3.28;;
16977;SDS011;8605;52.548;4.918;2023-05-15T22:16:23;16.63;;;3.17;;
16977;SDS011;8605;52.548;4.918;2023-05-15T22:21:26;10.40;;;3.10;;
16977;SDS011;8605;52.548;4.918;2023-05-15T22:26:30;11.43;;;3.17;;
16977;SDS011;8605;52.548;4.918;2023-05-15T22:31:34;16.40;;;2.90;;
16977;SDS011;8605;52.548;4.918;2023-05-15T22:36:37;15.43;;;2.70;;
16977;SDS011;8605;52.548;4.918;2023-05-15T22:41:40;8.95;;;3.20;;
16977;SDS011;8605;52.548;4.918;2023-05-15T22:46:44;11.80;;;3.40;;
16977;SDS011;8605;52.548;4.918;2023-05-15T22:51:47;13.95;;;3.10;;
16977;SDS011;8605;52.548;4.918;2023-05-15T22:56:50;11.17;;;3.00;;
16977;SDS011;8605;52.548;4.918;2023-05-15T23:01:55;8.75;;;2.45;;
16977;SDS011;8605;52.548;4.918;2023-05-15T23:06:58;7.38;;;2.83;;
16977;SDS011;8605;52.548;4.918;2023-05-15T23:12:01;10.40;;;3.28;;
16977;SDS011;8605;52.548;4.918;2023-05-15T23:17:06;8.55;;;2.47;;
16977;SDS011;8605;52.548;4.918;2023-05-15T23:22:10;15.20;;;3.03;;
16977;SDS011;8605;52.548;4.918;2023-05-15T23:27:13;10.57;;;2.23;;
16977;SDS011;8605;52.548;4.918;2023-05-15T23:32:17;11.05;;;2.53;;
16977;SDS011;8605;52.548;4.918;2023-05-15T23:37:20;9.82;;;2.88;;
16977;SDS011;8605;52.548;4.918;2023-05-15T23:42:23;15.83;;;3.43;;
16977;SDS011;8605;52.548;4.918;2023-05-15T23:47:27;7.60;;;2.70;;
16977;SDS011;8605;52.548;4.918;2023-05-15T23:52:30;12.38;;;2.60;;
16977;SDS011;8605;52.548;4.918;2023-05-15T23:57:33;13.27;;;2.93;;
